Crossville Memorial Whitson Field
KCSV : now visible

Airfield :











YOU CAN JOIN US ON...

 
LOGIN :

Register | Disclaimer

   EN    FR    IT 

 









Legend :    VFR   Marginal VFR   IFR   Intensive IFR   Very Intensive IFR
Visi :
Ceiling :
>= 8 km
>= 3000ft
5 to 8 km
1000 to 3000 ft
1500m to 5 km
500 to 1000 ft
800 to 1500m
200 to 500 ft
< 800m
< 200 ft
Symbols :   Thunderstorms  Fog  Heavy snow  Heavy precipitations  Wind > 20 kt






- Airport Elevation : 1881 ft


KCSV - Crossville Memorial Whitson Field

CURRENT METAR :
  • 220353Z AUTO VRB06G15KT 10SM OVC050 13/02 A3011 RMK AO2 SLP188 T01280022

EXPIRED METARs :
  • 220253Z AUTO 21007KT 180V240 10SM FEW039 OVC050 13/03 A3012 RMK AO2 SLP194 60000 T01280028 58005
  • 220153Z AUTO VRB06KT 10SM FEW049 BKN065 OVC080 12/03 A3014 RMK AO2 RAB42E51 SLP201 P0000 T01220028

TAF KCSV
Valid from the 22 at 04:00 until the 23 at 00:00 UTC


220415Z 2204/2224 21006G15KT P6SM VCSH OVC050
FM221000 21006KT 6SM SHRA BR OVC080
FM221300 21006KT 4SM SHRA BR OVC050
FM221600 24005KT 2SM SHRA OVC015
FM222000 36003KT 4SM -SHRA OVC007



MET'MAP, your aeronautical weather chart ! - Copyright ORBIFLY December 2007 - Disclaimer

ORBIFLY MET'MAP TEAM :

Programming & Development : Alexandra Zaïnal
Concept & Development : Baudouin d'Aumeries
Co-Development & Prog : Marc-Olivier Méhu
Technical & hardware support : Manuel Goepfert

Contact : metmap@orbifly.com




SOURCES & CREDITS :

   NOAA       Earth
Advisory